Lakewood, Ohio
Current Conditions -  °F | °C
As of 6:53 PM on Wednesday 26 Nov 2014 (Local Time) from KBKL Reporting Station
Overcast Overcast  
Wind Chill: 33°   Ceiling: 2600
Heat Index: 37°   Visibility: 10mi
Dew Point: 27°   Wind: 5mph
Humidity: 67%   Direction: 270°W
Pressure: 30.04"   Gusts: NA
Location:  41.48°N, 81.78°W
Report Text: KBKL 262353Z 27004KT 10SM BKN026 OVC045 03/M03 A3004 RMK AO2 SLP176 T00281028 10039 20022 58002
Loading
Personal Weather Stations






























Interactive Weather Map New forecast layout! Learn more

10-Day Weather Forecast

Advertisements
Track Severe Weather on mobile